Coleman, TX

4:52 AM CST on February 22, 2017 (GMT -0600)
Coleman Municipal

Weather History for KCOM - January, 2014

Change the Weather History Date:

Monday, January 13, 2014

  Actual Average (KABI) Record (KABI)
Temperature  
Mean Temperature 48 °F -  
Max Temperature 61 °F 55 °F 78 °F (1971)
Min Temperature 35 °F 32 °F 8 °F (1963)
Degree Days  
Heating Degree Days 17    
Moisture  
Dew Point 21 °F    
Average Humidity 34    
Maximum Humidity 70    
Minimum Humidity 12    
Precipitation  
Precipitation 0.00 in - - ()
Sea Level Pressure  
Sea Level Pressure 30.07 in    
Wind  
Wind Speed 12 mph (NW)    
Max Wind Speed 20 mph    
Max Gust Speed 25 mph    
Visibility 10 miles    
Events      
Averages and records for this station are not official NWS values.
T = Trace of Precipitation, MM = Missing Value Source: NWS Daily Summary

Daily Weather History Graph

Daily Weather History Graph

Search for Another Location

Airport or City:

Trip Planner

Search our weather history database for the weather conditions in past years. The results will help you decide how hot, cold, wet, or windy it might be!

Date:

Astronomy

Jan. 13, 2014 Rise Set
Actual Time 7:38 AM CST 5:54 PM CST
Civil Twilight 7:11 AM CST 6:21 PM CST
Nautical Twilight 6:41 AM CST 6:51 PM CST
Astronomical Twilight 6:12 AM CST 7:20 PM CST
Moon 4:09 PM CST (1/13) 5:29 AM CST (1/13)
Length of Visible Light 11h 09m
Length of Day
10h 16m
Waxing Gibbous, 95% of the Moon is Illuminated
Jan 13
Waxing Gibbous
Jan 15
Full
Jan 23
Last Quarter
Jan 30
New
Feb 6
First Quarter

Hourly Weather History & Observations

Time (CST) Temp. Windchill Dew Point Humidity Pressure Visibility Wind Dir Wind Speed Gust Speed Precip Events Conditions
12:15 AM 56.1 °F - 45.7 °F 68% 29.85 in 10.0 mi SW 13.8 mph - N/A   Clear
12:35 AM 56.8 °F - 46.6 °F 69% 29.87 in 10.0 mi WSW 13.8 mph - N/A   Clear
12:55 AM 57.0 °F - 46.6 °F 68% 29.88 in 10.0 mi West 18.4 mph 25.3 mph N/A   Clear
1:15 AM 56.3 °F - 46.6 °F 70% 29.88 in 10.0 mi West 16.1 mph - N/A   Clear
1:35 AM 55.9 °F - 46.4 °F 70% 29.88 in 10.0 mi West 13.8 mph 17.3 mph N/A   Clear
1:55 AM 56.1 °F - 44.6 °F 65% 29.89 in 10.0 mi West 15.0 mph 19.6 mph N/A   Clear
2:15 AM 55.0 °F - 43.7 °F 66% 29.90 in 10.0 mi WNW 10.4 mph - N/A   Clear
2:35 AM 56.3 °F - 32.5 °F 41% 29.91 in 10.0 mi NNW 19.6 mph 25.3 mph N/A   Clear
2:55 AM 54.3 °F - 29.3 °F 38% 29.93 in 10.0 mi NNW 17.3 mph 23.0 mph N/A   Clear
3:15 AM 52.7 °F - 29.3 °F 41% 29.93 in 10.0 mi NNW 16.1 mph - N/A   Clear
3:35 AM 50.9 °F - 29.8 °F 44% 29.94 in 10.0 mi NNW 13.8 mph - N/A   Clear
3:55 AM 50.4 °F - 29.3 °F 44% 29.96 in 10.0 mi NNW 16.1 mph - N/A   Clear
4:15 AM 49.6 °F - 29.1 °F 45% 29.96 in 10.0 mi NNW 13.8 mph - N/A   Clear
4:35 AM 49.1 °F - 28.4 °F 45% 29.96 in 10.0 mi NNW 12.7 mph - N/A   Clear
4:55 AM 48.6 °F - 28.0 °F 45% 29.98 in 10.0 mi NNW 13.8 mph - N/A   Clear
5:15 AM 47.5 °F - 27.5 °F 46% 29.99 in 10.0 mi NNW 10.4 mph - N/A   Clear
5:35 AM 47.7 °F - 26.4 °F 44% 30.00 in 10.0 mi NNW 12.7 mph 18.4 mph N/A   Clear
5:55 AM 48.0 °F - 25.3 °F 41% 30.01 in 10.0 mi NNW 15.0 mph - N/A   Clear
6:15 AM 47.5 °F - 25.0 °F 41% 30.03 in 10.0 mi NNW 13.8 mph - N/A   Clear
6:35 AM 46.4 °F 40.7 °F 25.3 °F 44% 30.03 in 10.0 mi NNW 12.7 mph 19.6 mph N/A   Clear
6:55 AM 44.8 °F 39.4 °F 25.7 °F 47% 30.05 in 10.0 mi NNW 10.4 mph - N/A   Clear
7:15 AM 44.2 °F 39.2 °F 25.2 °F 47% 30.06 in 10.0 mi NNW 9.2 mph - N/A   Clear
7:35 AM 43.7 °F 38.6 °F 24.8 °F 47% 30.07 in 10.0 mi NNW 9.2 mph - N/A   Clear
7:55 AM 43.7 °F 38.1 °F 24.8 °F 47% 30.08 in 10.0 mi NW 10.4 mph - N/A   Clear
8:15 AM 44.6 °F 39.2 °F 24.8 °F 46% 30.10 in 10.0 mi NNW 10.4 mph - N/A   Clear
8:35 AM 46.2 °F 40.8 °F 24.4 °F 42% 30.11 in 10.0 mi NNW 11.5 mph - N/A   Clear
8:55 AM 48.0 °F - 23.9 °F 39% 30.11 in 10.0 mi NNW 12.7 mph 17.3 mph N/A   Clear
9:15 AM 50.0 °F - 22.6 °F 34% 30.13 in 10.0 mi NNW 12.7 mph - N/A   Clear
9:35 AM 51.4 °F - 22.1 °F 32% 30.14 in 10.0 mi NNW 19.6 mph - N/A   Clear
9:55 AM 52.7 °F - 21.2 °F 29% 30.15 in 10.0 mi NNW 17.3 mph 25.3 mph N/A   Clear
10:15 AM 54.0 °F - 19.4 °F 26% 30.16 in 10.0 mi NNW 16.1 mph 23.0 mph N/A   Clear
10:35 AM 54.5 °F - 19.8 °F 26% 30.17 in 10.0 mi NNW 15.0 mph 21.9 mph N/A   Clear
10:55 AM 55.6 °F - 18.9 °F 24% 30.17 in 10.0 mi NW 15.0 mph 20.7 mph N/A   Clear
11:15 AM 56.5 °F - 18.3 °F 23% 30.16 in 10.0 mi NNW 15.0 mph 21.9 mph N/A   Clear
11:35 AM 56.5 °F - 17.1 °F 21% 30.16 in 10.0 mi NNW 16.1 mph 23.0 mph N/A   Clear
11:55 AM 57.4 °F - 15.8 °F 20% 30.16 in 10.0 mi NNW 15.0 mph 19.6 mph N/A   Clear
12:15 PM 58.1 °F - 15.4 °F 19% 30.15 in 10.0 mi North 12.7 mph 18.4 mph N/A   Clear
12:35 PM 58.3 °F - 14.4 °F 18% 30.14 in 10.0 mi NNW 15.0 mph 18.4 mph N/A   Clear
12:55 PM 59.4 °F - 12.6 °F 16% 30.13 in 10.0 mi NNW 16.1 mph 19.6 mph N/A   Clear
1:15 PM 59.2 °F - 12.2 °F 16% 30.12 in 10.0 mi NW 13.8 mph 20.7 mph N/A   Clear
1:35 PM 60.3 °F - 10.9 °F 14% 30.11 in 10.0 mi NW 13.8 mph 18.4 mph N/A   Clear
1:55 PM 60.8 °F - 10.6 °F 14% 30.11 in 10.0 mi NNW 10.4 mph 19.6 mph N/A   Clear
2:15 PM 60.8 °F - 9.3 °F 13% 30.11 in 10.0 mi NNW 11.5 mph 21.9 mph N/A   Clear
2:35 PM 60.8 °F - 8.6 °F 13% 30.11 in 10.0 mi NNW 16.1 mph 23.0 mph N/A   Clear
2:55 PM 61.7 °F - 9.7 °F 13% 30.11 in 10.0 mi NNW 17.3 mph 24.2 mph N/A   Clear
3:15 PM 61.3 °F - 9.0 °F 13% 30.11 in 10.0 mi WNW 13.8 mph 20.7 mph N/A   Clear
3:35 PM 61.7 °F - 9.0 °F 13% 30.11 in 10.0 mi NW 12.7 mph 18.4 mph N/A   Clear
3:55 PM 61.7 °F - 8.8 °F 12% 30.11 in 10.0 mi NW 12.7 mph 19.6 mph N/A   Clear
4:15 PM 61.3 °F - 9.0 °F 13% 30.11 in 10.0 mi NW 11.5 mph 18.4 mph N/A   Clear
4:35 PM 61.3 °F - 9.3 °F 13% 30.11 in 10.0 mi NW 11.5 mph 17.3 mph N/A   Clear
4:55 PM 60.8 °F - 10.0 °F 14% 30.11 in 10.0 mi WNW 8.1 mph - N/A   Clear
5:15 PM 59.7 °F - 10.8 °F 15% 30.11 in 10.0 mi West 10.4 mph - N/A   Clear
5:35 PM 58.1 °F - 10.9 °F 16% 30.10 in 10.0 mi West 10.4 mph - N/A   Clear
5:55 PM 55.2 °F - 11.3 °F 17% 30.10 in 10.0 mi West 6.9 mph - N/A   Clear
6:15 PM 52.2 °F - 12.2 °F 20% 30.11 in 10.0 mi West 4.6 mph - N/A   Clear
6:35 PM 52.2 °F - 11.8 °F 20% 30.11 in 10.0 mi West 4.6 mph - N/A   Clear
6:55 PM 50.4 °F - 12.4 °F 22% 30.10 in 10.0 mi WSW 3.5 mph - N/A   Clear
7:15 PM 49.8 °F - 12.9 °F 23% 30.11 in 10.0 mi WSW 3.5 mph - N/A   Clear
7:35 PM 48.6 °F - 13.3 °F 24% 30.12 in 10.0 mi West 4.6 mph - N/A   Clear
7:55 PM 45.5 °F 42.5 °F 14.4 °F 29% 30.12 in 10.0 mi West 5.8 mph - N/A   Clear
8:15 PM 44.2 °F 42.7 °F 14.5 °F 30% 30.12 in 10.0 mi West 3.5 mph - N/A   Clear
8:35 PM 45.3 °F 44.0 °F 14.2 °F 29% 30.12 in 10.0 mi West 3.5 mph - N/A   Clear
8:55 PM 43.0 °F - 14.4 °F 31% 30.11 in 10.0 mi Calm Calm - N/A   Clear
9:15 PM 41.9 °F - 14.9 °F 34% 30.11 in 10.0 mi Calm Calm - N/A   Clear
9:35 PM 40.1 °F 38.0 °F 16.2 °F 38% 30.11 in 10.0 mi WSW 3.5 mph - N/A   Clear
9:55 PM 39.4 °F - 16.5 °F 40% 30.11 in 10.0 mi Calm Calm - N/A   Clear
10:15 PM 38.3 °F 35.9 °F 16.9 °F 42% 30.11 in 10.0 mi West 3.5 mph - N/A   Clear
10:35 PM 37.0 °F - 16.3 °F 43% 30.11 in 10.0 mi Calm Calm - N/A   Clear
10:55 PM 38.7 °F - 16.5 °F 41% 30.11 in 10.0 mi Calm Calm - N/A   Clear
11:15 PM 37.2 °F 32.6 °F 17.4 °F 45% 30.11 in 10.0 mi West 5.8 mph - N/A   Clear
11:35 PM 35.6 °F 30.7 °F 17.6 °F 48% 30.10 in 10.0 mi WSW 5.8 mph - N/A   Clear
11:55 PM 36.7 °F 32.9 °F 17.2 °F 45% 30.09 in 10.0 mi SW 4.6 mph - N/A   Clear